sensor_id;sensor_type;location;lat;lon;timestamp;P1;durP1;ratioP1;P2;durP2;ratioP2
36989;SDS011;22898;52.102;5.776;2024-01-10T00:01:51;3.80;;;1.25;;
36989;SDS011;22898;52.102;5.776;2024-01-10T00:04:18;1.25;;;0.80;;
36989;SDS011;22898;52.102;5.776;2024-01-10T00:06:45;3.72;;;1.52;;
36989;SDS011;22898;52.102;5.776;2024-01-10T00:09:10;2.63;;;1.05;;
36989;SDS011;22898;52.102;5.776;2024-01-10T00:11:36;6.22;;;1.45;;
36989;SDS011;22898;52.102;5.776;2024-01-10T00:14:01;1.48;;;1.10;;
36989;SDS011;22898;52.102;5.776;2024-01-10T00:16:28;2.45;;;1.23;;
36989;SDS011;22898;52.102;5.776;2024-01-10T00:18:54;3.80;;;1.67;;
36989;SDS011;22898;52.102;5.776;2024-01-10T00:21:19;2.72;;;1.60;;
36989;SDS011;22898;52.102;5.776;2024-01-10T00:23:45;1.75;;;1.40;;
36989;SDS011;22898;52.102;5.776;2024-01-10T00:26:11;1.05;;;0.95;;
36989;SDS011;22898;52.102;5.776;2024-01-10T00:28:36;2.47;;;1.67;;
36989;SDS011;22898;52.102;5.776;2024-01-10T00:31:02;0.88;;;0.88;;
36989;SDS011;22898;52.102;5.776;2024-01-10T00:33:27;1.80;;;1.23;;
36989;SDS011;22898;52.102;5.776;2024-01-10T00:35:53;1.95;;;1.30;;
36989;SDS011;22898;52.102;5.776;2024-01-10T00:38:19;1.15;;;1.05;;
36989;SDS011;22898;52.102;5.776;2024-01-10T00:40:44;3.28;;;1.85;;
36989;SDS011;22898;52.102;5.776;2024-01-10T00:43:10;3.15;;;1.48;;
36989;SDS011;22898;52.102;5.776;2024-01-10T00:45:36;1.40;;;1.10;;
36989;SDS011;22898;52.102;5.776;2024-01-10T00:48:01;1.92;;;0.90;;
36989;SDS011;22898;52.102;5.776;2024-01-10T00:50:27;1.92;;;1.25;;
36989;SDS011;22898;52.102;5.776;2024-01-10T00:52:53;2.58;;;1.20;;
36989;SDS011;22898;52.102;5.776;2024-01-10T00:55:19;0.93;;;0.93;;
36989;SDS011;22898;52.102;5.776;2024-01-10T00:57:44;3.00;;;1.65;;
36989;SDS011;22898;52.102;5.776;2024-01-10T01:00:10;5.35;;;1.88;;
36989;SDS011;22898;52.102;5.776;2024-01-10T01:02:37;2.35;;;1.60;;
36989;SDS011;22898;52.102;5.776;2024-01-10T01:05:04;4.03;;;1.92;;
36989;SDS011;22898;52.102;5.776;2024-01-10T01:07:32;3.58;;;2.10;;
36989;SDS011;22898;52.102;5.776;2024-01-10T01:09:57;1.10;;;0.90;;
36989;SDS011;22898;52.102;5.776;2024-01-10T01:12:23;3.00;;;1.55;;
36989;SDS011;22898;52.102;5.776;2024-01-10T01:14:49;0.90;;;0.75;;
36989;SDS011;22898;52.102;5.776;2024-01-10T01:17:14;4.70;;;2.13;;
36989;SDS011;22898;52.102;5.776;2024-01-10T01:19:40;1.52;;;1.30;;
36989;SDS011;22898;52.102;5.776;2024-01-10T01:22:06;2.15;;;1.67;;
36989;SDS011;22898;52.102;5.776;2024-01-10T01:24:31;4.75;;;0.98;;
36989;SDS011;22898;52.102;5.776;2024-01-10T01:26:57;3.42;;;1.83;;
36989;SDS011;22898;52.102;5.776;2024-01-10T01:29:23;2.58;;;1.35;;
36989;SDS011;22898;52.102;5.776;2024-01-10T01:31:49;1.38;;;1.00;;
36989;SDS011;22898;52.102;5.776;2024-01-10T01:34:15;5.18;;;1.67;;
36989;SDS011;22898;52.102;5.776;2024-01-10T01:36:40;2.97;;;1.83;;
36989;SDS011;22898;52.102;5.776;2024-01-10T01:39:06;1.80;;;1.30;;
36989;SDS011;22898;52.102;5.776;2024-01-10T01:41:32;7.45;;;1.45;;
36989;SDS011;22898;52.102;5.776;2024-01-10T01:43:57;2.45;;;1.98;;
36989;SDS011;22898;52.102;5.776;2024-01-10T01:46:23;0.88;;;0.88;;
36989;SDS011;22898;52.102;5.776;2024-01-10T01:48:49;6.85;;;2.30;;
36989;SDS011;22898;52.102;5.776;2024-01-10T01:51:15;2.45;;;1.58;;
36989;SDS011;22898;52.102;5.776;2024-01-10T01:53:42;1.52;;;1.17;;
36989;SDS011;22898;52.102;5.776;2024-01-10T01:56:10;1.92;;;1.65;;
36989;SDS011;22898;52.102;5.776;2024-01-10T01:58:37;1.83;;;0.93;;
36989;SDS011;22898;52.102;5.776;2024-01-10T02:01:05;2.47;;;1.58;;
36989;SDS011;22898;52.102;5.776;2024-01-10T02:03:31;0.60;;;0.60;;
36989;SDS011;22898;52.102;5.776;2024-01-10T02:05:57;3.00;;;1.70;;
36989;SDS011;22898;52.102;5.776;2024-01-10T02:08:24;2.25;;;1.27;;
36989;SDS011;22898;52.102;5.776;2024-01-10T02:10:49;1.70;;;1.00;;
36989;SDS011;22898;52.102;5.776;2024-01-10T02:13:15;2.13;;;1.33;;
36989;SDS011;22898;52.102;5.776;2024-01-10T02:15:42;6.00;;;1.10;;
36989;SDS011;22898;52.102;5.776;2024-01-10T02:18:08;2.08;;;1.33;;
36989;SDS011;22898;52.102;5.776;2024-01-10T02:20:39;2.30;;;1.55;;
36989;SDS011;22898;52.102;5.776;2024-01-10T02:23:07;2.92;;;1.52;;
36989;SDS011;22898;52.102;5.776;2024-01-10T02:25:34;4.57;;;1.00;;
36989;SDS011;22898;52.102;5.776;2024-01-10T02:28:00;2.22;;;1.25;;
36989;SDS011;22898;52.102;5.776;2024-01-10T02:30:25;0.80;;;0.80;;
36989;SDS011;22898;52.102;5.776;2024-01-10T02:32:51;2.65;;;1.60;;
36989;SDS011;22898;52.102;5.776;2024-01-10T02:35:17;1.60;;;1.50;;
36989;SDS011;22898;52.102;5.776;2024-01-10T02:37:42;1.40;;;0.88;;
36989;SDS011;22898;52.102;5.776;2024-01-10T02:40:08;6.03;;;1.90;;
36989;SDS011;22898;52.102;5.776;2024-01-10T02:42:35;3.95;;;1.83;;
36989;SDS011;22898;52.102;5.776;2024-01-10T02:45:00;1.38;;;0.60;;
36989;SDS011;22898;52.102;5.776;2024-01-10T02:47:26;2.28;;;1.17;;
36989;SDS011;22898;52.102;5.776;2024-01-10T02:49:53;4.47;;;2.50;;
36989;SDS011;22898;52.102;5.776;2024-01-10T02:52:18;3.00;;;2.03;;
36989;SDS011;22898;52.102;5.776;2024-01-10T02:54:45;2.17;;;1.55;;
36989;SDS011;22898;52.102;5.776;2024-01-10T02:57:11;3.28;;;1.70;;
36989;SDS011;22898;52.102;5.776;2024-01-10T02:59:36;3.08;;;1.88;;
36989;SDS011;22898;52.102;5.776;2024-01-10T03:02:02;2.70;;;1.70;;
36989;SDS011;22898;52.102;5.776;2024-01-10T03:04:28;4.50;;;2.40;;
36989;SDS011;22898;52.102;5.776;2024-01-10T03:06:53;2.90;;;1.17;;
36989;SDS011;22898;52.102;5.776;2024-01-10T03:09:19;4.28;;;1.50;;
36989;SDS011;22898;52.102;5.776;2024-01-10T03:11:44;2.03;;;1.25;;
36989;SDS011;22898;52.102;5.776;2024-01-10T03:14:10;4.80;;;2.40;;
36989;SDS011;22898;52.102;5.776;2024-01-10T03:16:37;5.05;;;2.42;;
36989;SDS011;22898;52.102;5.776;2024-01-10T03:19:03;1.58;;;1.35;;
36989;SDS011;22898;52.102;5.776;2024-01-10T03:21:28;3.05;;;1.55;;
36989;SDS011;22898;52.102;5.776;2024-01-10T03:23:58;2.15;;;1.48;;
36989;SDS011;22898;52.102;5.776;2024-01-10T03:26:25;3.45;;;1.48;;
36989;SDS011;22898;52.102;5.776;2024-01-10T03:28:52;2.42;;;1.70;;
36989;SDS011;22898;52.102;5.776;2024-01-10T03:31:18;2.92;;;1.70;;
36989;SDS011;22898;52.102;5.776;2024-01-10T03:33:44;3.78;;;2.05;;
36989;SDS011;22898;52.102;5.776;2024-01-10T03:36:15;2.50;;;1.77;;
36989;SDS011;22898;52.102;5.776;2024-01-10T03:38:41;3.22;;;1.38;;
36989;SDS011;22898;52.102;5.776;2024-01-10T03:41:12;4.00;;;1.63;;
36989;SDS011;22898;52.102;5.776;2024-01-10T03:43:41;5.53;;;1.97;;
36989;SDS011;22898;52.102;5.776;2024-01-10T03:46:08;3.70;;;1.42;;
36989;SDS011;22898;52.102;5.776;2024-01-10T03:48:34;2.85;;;1.90;;
36989;SDS011;22898;52.102;5.776;2024-01-10T03:51:00;3.97;;;1.85;;
36989;SDS011;22898;52.102;5.776;2024-01-10T03:53:26;2.40;;;1.67;;
36989;SDS011;22898;52.102;5.776;2024-01-10T03:55:52;3.60;;;1.88;;
36989;SDS011;22898;52.102;5.776;2024-01-10T03:58:17;3.88;;;1.40;;
36989;SDS011;22898;52.102;5.776;2024-01-10T04:00:43;1.75;;;1.45;;
36989;SDS011;22898;52.102;5.776;2024-01-10T04:03:09;3.15;;;0.95;;
36989;SDS011;22898;52.102;5.776;2024-01-10T04:05:34;3.05;;;1.75;;
36989;SDS011;22898;52.102;5.776;2024-01-10T04:08:00;1.95;;;1.33;;
36989;SDS011;22898;52.102;5.776;2024-01-10T04:10:26;1.20;;;0.88;;
36989;SDS011;22898;52.102;5.776;2024-01-10T04:12:51;2.30;;;1.05;;
36989;SDS011;22898;52.102;5.776;2024-01-10T04:15:17;4.75;;;1.92;;
36989;SDS011;22898;52.102;5.776;2024-01-10T04:17:43;1.92;;;1.65;;
36989;SDS011;22898;52.102;5.776;2024-01-10T04:20:09;1.10;;;1.00;;
36989;SDS011;22898;52.102;5.776;2024-01-10T04:22:35;4.32;;;1.98;;
36989;SDS011;22898;52.102;5.776;2024-01-10T04:25:01;3.17;;;1.90;;
36989;SDS011;22898;52.102;5.776;2024-01-10T04:27:29;5.70;;;2.35;;
36989;SDS011;22898;52.102;5.776;2024-01-10T04:29:55;2.70;;;1.67;;
36989;SDS011;22898;52.102;5.776;2024-01-10T04:32:21;2.42;;;1.45;;
36989;SDS011;22898;52.102;5.776;2024-01-10T04:34:46;2.65;;;1.52;;
36989;SDS011;22898;52.102;5.776;2024-01-10T04:37:12;1.60;;;1.50;;
36989;SDS011;22898;52.102;5.776;2024-01-10T04:39:38;1.33;;;1.13;;
36989;SDS011;22898;52.102;5.776;2024-01-10T04:42:05;1.85;;;1.30;;
36989;SDS011;22898;52.102;5.776;2024-01-10T04:44:31;2.55;;;1.85;;
36989;SDS011;22898;52.102;5.776;2024-01-10T04:46:56;3.80;;;1.90;;
36989;SDS011;22898;52.102;5.776;2024-01-10T04:49:22;1.75;;;1.35;;
36989;SDS011;22898;52.102;5.776;2024-01-10T04:51:48;4.45;;;2.17;;
36989;SDS011;22898;52.102;5.776;2024-01-10T04:54:15;1.17;;;1.08;;
36989;SDS011;22898;52.102;5.776;2024-01-10T04:56:40;1.45;;;1.35;;
36989;SDS011;22898;52.102;5.776;2024-01-10T04:59:06;3.92;;;2.30;;
36989;SDS011;22898;52.102;5.776;2024-01-10T05:01:32;5.43;;;1.80;;
36989;SDS011;22898;52.102;5.776;2024-01-10T05:03:57;2.33;;;0.98;;
36989;SDS011;22898;52.102;5.776;2024-01-10T05:06:23;3.33;;;1.65;;
36989;SDS011;22898;52.102;5.776;2024-01-10T05:08:49;2.30;;;1.67;;
36989;SDS011;22898;52.102;5.776;2024-01-10T05:11:15;2.03;;;1.70;;
36989;SDS011;22898;52.102;5.776;2024-01-10T05:13:42;4.10;;;1.83;;
36989;SDS011;22898;52.102;5.776;2024-01-10T05:16:08;3.00;;;1.73;;
36989;SDS011;22898;52.102;5.776;2024-01-10T05:18:33;1.17;;;1.08;;
36989;SDS011;22898;52.102;5.776;2024-01-10T05:21:00;3.90;;;2.13;;
36989;SDS011;22898;52.102;5.776;2024-01-10T05:23:26;1.08;;;0.90;;
36989;SDS011;22898;52.102;5.776;2024-01-10T05:25:53;6.65;;;1.70;;
36989;SDS011;22898;52.102;5.776;2024-01-10T05:28:19;3.33;;;2.05;;
36989;SDS011;22898;52.102;5.776;2024-01-10T05:30:45;3.45;;;1.83;;
36989;SDS011;22898;52.102;5.776;2024-01-10T05:33:10;0.80;;;0.80;;
36989;SDS011;22898;52.102;5.776;2024-01-10T05:35:39;2.08;;;1.85;;
36989;SDS011;22898;52.102;5.776;2024-01-10T05:38:04;3.03;;;1.48;;
36989;SDS011;22898;52.102;5.776;2024-01-10T05:40:30;4.63;;;2.42;;
36989;SDS011;22898;52.102;5.776;2024-01-10T05:42:56;1.95;;;1.27;;
36989;SDS011;22898;52.102;5.776;2024-01-10T05:45:24;10.00;;;5.15;;
36989;SDS011;22898;52.102;5.776;2024-01-10T05:47:50;1.98;;;1.63;;
36989;SDS011;22898;52.102;5.776;2024-01-10T05:50:15;3.03;;;1.52;;
36989;SDS011;22898;52.102;5.776;2024-01-10T05:52:42;2.55;;;2.13;;
36989;SDS011;22898;52.102;5.776;2024-01-10T05:55:08;1.95;;;1.63;;
36989;SDS011;22898;52.102;5.776;2024-01-10T05:57:35;5.80;;;1.77;;
36989;SDS011;22898;52.102;5.776;2024-01-10T06:00:05;4.90;;;1.90;;
36989;SDS011;22898;52.102;5.776;2024-01-10T06:02:40;5.03;;;1.88;;
36989;SDS011;22898;52.102;5.776;2024-01-10T06:05:10;4.07;;;2.75;;
36989;SDS011;22898;52.102;5.776;2024-01-10T06:07:36;2.85;;;2.22;;
36989;SDS011;22898;52.102;5.776;2024-01-10T06:10:02;1.77;;;1.33;;
36989;SDS011;22898;52.102;5.776;2024-01-10T06:12:28;4.10;;;2.40;;
36989;SDS011;22898;52.102;5.776;2024-01-10T06:14:54;1.33;;;1.23;;
36989;SDS011;22898;52.102;5.776;2024-01-10T06:17:20;3.38;;;1.88;;
36989;SDS011;22898;52.102;5.776;2024-01-10T06:19:46;4.35;;;2.15;;
36989;SDS011;22898;52.102;5.776;2024-01-10T06:22:12;2.63;;;1.88;;
36989;SDS011;22898;52.102;5.776;2024-01-10T06:24:38;6.05;;;3.53;;
36989;SDS011;22898;52.102;5.776;2024-01-10T06:27:04;2.97;;;2.05;;
36989;SDS011;22898;52.102;5.776;2024-01-10T06:29:31;14.65;;;2.03;;
36989;SDS011;22898;52.102;5.776;2024-01-10T06:31:57;2.70;;;1.58;;
36989;SDS011;22898;52.102;5.776;2024-01-10T06:34:23;2.95;;;1.55;;
36989;SDS011;22898;52.102;5.776;2024-01-10T06:36:49;10.23;;;2.05;;
36989;SDS011;22898;52.102;5.776;2024-01-10T06:39:14;1.25;;;1.10;;
36989;SDS011;22898;52.102;5.776;2024-01-10T06:41:42;4.03;;;1.40;;
36989;SDS011;22898;52.102;5.776;2024-01-10T06:44:07;10.48;;;2.28;;
36989;SDS011;22898;52.102;5.776;2024-01-10T06:46:33;2.55;;;1.10;;
36989;SDS011;22898;52.102;5.776;2024-01-10T06:48:59;4.45;;;1.48;;
36989;SDS011;22898;52.102;5.776;2024-01-10T06:51:25;3.88;;;1.92;;
36989;SDS011;22898;52.102;5.776;2024-01-10T06:53:53;4.15;;;1.98;;
36989;SDS011;22898;52.102;5.776;2024-01-10T06:56:25;2.15;;;1.55;;
36989;SDS011;22898;52.102;5.776;2024-01-10T06:58:51;3.17;;;1.90;;
36989;SDS011;22898;52.102;5.776;2024-01-10T07:01:16;4.15;;;2.30;;
36989;SDS011;22898;52.102;5.776;2024-01-10T07:03:42;6.68;;;3.15;;
36989;SDS011;22898;52.102;5.776;2024-01-10T07:06:09;4.68;;;3.03;;
36989;SDS011;22898;52.102;5.776;2024-01-10T07:08:39;3.80;;;3.05;;
36989;SDS011;22898;52.102;5.776;2024-01-10T07:11:07;6.97;;;2.70;;
36989;SDS011;22898;52.102;5.776;2024-01-10T07:13:33;3.45;;;1.50;;
36989;SDS011;22898;52.102;5.776;2024-01-10T07:15:59;10.25;;;2.20;;
36989;SDS011;22898;52.102;5.776;2024-01-10T07:18:28;1.63;;;1.38;;
36989;SDS011;22898;52.102;5.776;2024-01-10T07:20:53;4.47;;;2.17;;
36989;SDS011;22898;52.102;5.776;2024-01-10T07:23:19;3.58;;;2.08;;
36989;SDS011;22898;52.102;5.776;2024-01-10T07:25:45;1.35;;;1.17;;
36989;SDS011;22898;52.102;5.776;2024-01-10T07:28:10;4.55;;;1.88;;
36989;SDS011;22898;52.102;5.776;2024-01-10T07:30:36;3.25;;;2.92;;
36989;SDS011;22898;52.102;5.776;2024-01-10T07:33:02;2.47;;;1.98;;
36989;SDS011;22898;52.102;5.776;2024-01-10T07:35:27;4.82;;;2.45;;
36989;SDS011;22898;52.102;5.776;2024-01-10T07:37:54;3.40;;;2.45;;
36989;SDS011;22898;52.102;5.776;2024-01-10T07:40:20;3.95;;;2.42;;
36989;SDS011;22898;52.102;5.776;2024-01-10T07:42:45;2.05;;;1.70;;
36989;SDS011;22898;52.102;5.776;2024-01-10T07:45:11;5.68;;;2.95;;
36989;SDS011;22898;52.102;5.776;2024-01-10T07:47:37;5.50;;;3.22;;
36989;SDS011;22898;52.102;5.776;2024-01-10T07:50:07;6.70;;;3.35;;
36989;SDS011;22898;52.102;5.776;2024-01-10T07:52:34;7.32;;;3.15;;
36989;SDS011;22898;52.102;5.776;2024-01-10T07:55:00;3.55;;;2.22;;
36989;SDS011;22898;52.102;5.776;2024-01-10T07:57:26;3.72;;;2.38;;
36989;SDS011;22898;52.102;5.776;2024-01-10T07:59:53;3.80;;;2.13;;
36989;SDS011;22898;52.102;5.776;2024-01-10T08:02:18;1.90;;;1.63;;
36989;SDS011;22898;52.102;5.776;2024-01-10T08:04:44;5.82;;;2.85;;
36989;SDS011;22898;52.102;5.776;2024-01-10T08:07:10;5.13;;;2.42;;
36989;SDS011;22898;52.102;5.776;2024-01-10T08:09:36;5.22;;;1.80;;
36989;SDS011;22898;52.102;5.776;2024-01-10T08:12:02;1.85;;;1.35;;
36989;SDS011;22898;52.102;5.776;2024-01-10T08:14:28;3.80;;;1.55;;
36989;SDS011;22898;52.102;5.776;2024-01-10T08:16:54;3.67;;;1.23;;
36989;SDS011;22898;52.102;5.776;2024-01-10T08:19:23;4.90;;;2.75;;
36989;SDS011;22898;52.102;5.776;2024-01-10T08:21:55;7.15;;;2.90;;
36989;SDS011;22898;52.102;5.776;2024-01-10T08:24:21;2.20;;;1.35;;
36989;SDS011;22898;52.102;5.776;2024-01-10T08:26:47;2.67;;;2.05;;
36989;SDS011;22898;52.102;5.776;2024-01-10T08:29:20;3.92;;;2.45;;
36989;SDS011;22898;52.102;5.776;2024-01-10T08:31:46;5.53;;;2.42;;
36989;SDS011;22898;52.102;5.776;2024-01-10T08:34:12;9.48;;;2.25;;
36989;SDS011;22898;52.102;5.776;2024-01-10T08:36:38;3.47;;;2.60;;
36989;SDS011;22898;52.102;5.776;2024-01-10T08:39:04;3.08;;;2.15;;
36989;SDS011;22898;52.102;5.776;2024-01-10T08:41:31;3.75;;;1.98;;
36989;SDS011;22898;52.102;5.776;2024-01-10T08:43:57;3.85;;;1.92;;
36989;SDS011;22898;52.102;5.776;2024-01-10T08:46:23;7.57;;;2.90;;
36989;SDS011;22898;52.102;5.776;2024-01-10T08:48:49;7.75;;;2.10;;
36989;SDS011;22898;52.102;5.776;2024-01-10T08:51:15;7.38;;;2.50;;
36989;SDS011;22898;52.102;5.776;2024-01-10T08:53:42;4.32;;;1.88;;
36989;SDS011;22898;52.102;5.776;2024-01-10T08:56:08;7.97;;;2.50;;
36989;SDS011;22898;52.102;5.776;2024-01-10T08:58:35;7.63;;;3.25;;
36989;SDS011;22898;52.102;5.776;2024-01-10T09:01:01;8.75;;;2.80;;
36989;SDS011;22898;52.102;5.776;2024-01-10T09:03:27;4.88;;;2.58;;
36989;SDS011;22898;52.102;5.776;2024-01-10T09:05:53;7.50;;;3.35;;
36989;SDS011;22898;52.102;5.776;2024-01-10T09:08:19;6.15;;;2.75;;
36989;SDS011;22898;52.102;5.776;2024-01-10T09:10:45;3.15;;;2.20;;
36989;SDS011;22898;52.102;5.776;2024-01-10T09:13:10;5.60;;;2.15;;
36989;SDS011;22898;52.102;5.776;2024-01-10T09:15:36;3.72;;;1.95;;
36989;SDS011;22898;52.102;5.776;2024-01-10T09:18:02;8.13;;;4.65;;
36989;SDS011;22898;52.102;5.776;2024-01-10T09:20:27;4.32;;;2.65;;
36989;SDS011;22898;52.102;5.776;2024-01-10T09:22:53;5.10;;;2.25;;
36989;SDS011;22898;52.102;5.776;2024-01-10T09:25:19;5.40;;;2.55;;
36989;SDS011;22898;52.102;5.776;2024-01-10T09:27:45;8.13;;;3.25;;
36989;SDS011;22898;52.102;5.776;2024-01-10T09:30:12;7.07;;;2.80;;
36989;SDS011;22898;52.102;5.776;2024-01-10T09:32:38;5.88;;;3.50;;
36989;SDS011;22898;52.102;5.776;2024-01-10T09:35:04;13.45;;;2.78;;
36989;SDS011;22898;52.102;5.776;2024-01-10T09:37:30;2.67;;;1.45;;
36989;SDS011;22898;52.102;5.776;2024-01-10T09:39:55;2.97;;;1.75;;
36989;SDS011;22898;52.102;5.776;2024-01-10T09:42:21;6.65;;;3.65;;
36989;SDS011;22898;52.102;5.776;2024-01-10T09:44:50;3.13;;;2.30;;
36989;SDS011;22898;52.102;5.776;2024-01-10T09:47:16;6.50;;;2.58;;
36989;SDS011;22898;52.102;5.776;2024-01-10T09:49:44;8.20;;;2.55;;
36989;SDS011;22898;52.102;5.776;2024-01-10T09:52:11;11.18;;;3.75;;
36989;SDS011;22898;52.102;5.776;2024-01-10T09:54:48;4.93;;;2.58;;
36989;SDS011;22898;52.102;5.776;2024-01-10T09:57:22;6.25;;;3.13;;
36989;SDS011;22898;52.102;5.776;2024-01-10T09:59:51;5.00;;;2.97;;
36989;SDS011;22898;52.102;5.776;2024-01-10T10:02:18;4.97;;;2.53;;
36989;SDS011;22898;52.102;5.776;2024-01-10T10:04:54;6.50;;;3.10;;
36989;SDS011;22898;52.102;5.776;2024-01-10T10:07:27;11.93;;;3.08;;
36989;SDS011;22898;52.102;5.776;2024-01-10T10:09:53;2.72;;;1.70;;
36989;SDS011;22898;52.102;5.776;2024-01-10T10:12:21;8.18;;;3.30;;
36989;SDS011;22898;52.102;5.776;2024-01-10T10:14:49;6.05;;;3.15;;
36989;SDS011;22898;52.102;5.776;2024-01-10T10:17:15;3.92;;;2.20;;
36989;SDS011;22898;52.102;5.776;2024-01-10T10:19:41;4.07;;;2.53;;
36989;SDS011;22898;52.102;5.776;2024-01-10T10:22:08;6.30;;;2.83;;
36989;SDS011;22898;52.102;5.776;2024-01-10T10:24:34;5.68;;;2.40;;
36989;SDS011;22898;52.102;5.776;2024-01-10T10:27:00;3.38;;;2.35;;
36989;SDS011;22898;52.102;5.776;2024-01-10T10:29:26;7.78;;;3.10;;
36989;SDS011;22898;52.102;5.776;2024-01-10T10:31:51;6.13;;;3.60;;
36989;SDS011;22898;52.102;5.776;2024-01-10T10:34:20;8.85;;;2.80;;
36989;SDS011;22898;52.102;5.776;2024-01-10T10:36:48;4.78;;;2.30;;
36989;SDS011;22898;52.102;5.776;2024-01-10T10:39:16;8.80;;;3.63;;
36989;SDS011;22898;52.102;5.776;2024-01-10T10:41:42;9.35;;;4.00;;
36989;SDS011;22898;52.102;5.776;2024-01-10T10:44:09;5.38;;;3.28;;
36989;SDS011;22898;52.102;5.776;2024-01-10T10:46:37;5.25;;;2.65;;
36989;SDS011;22898;52.102;5.776;2024-01-10T10:49:06;7.57;;;3.03;;
36989;SDS011;22898;52.102;5.776;2024-01-10T10:51:35;5.93;;;2.63;;
36989;SDS011;22898;52.102;5.776;2024-01-10T10:54:06;6.60;;;3.65;;
36989;SDS011;22898;52.102;5.776;2024-01-10T10:56:34;6.85;;;2.70;;
36989;SDS011;22898;52.102;5.776;2024-01-10T10:59:02;10.20;;;3.13;;
36989;SDS011;22898;52.102;5.776;2024-01-10T11:01:29;7.53;;;2.47;;
36989;SDS011;22898;52.102;5.776;2024-01-10T11:03:56;7.07;;;2.45;;
36989;SDS011;22898;52.102;5.776;2024-01-10T11:06:23;11.02;;;3.67;;
36989;SDS011;22898;52.102;5.776;2024-01-10T11:08:53;5.50;;;3.00;;
36989;SDS011;22898;52.102;5.776;2024-01-10T11:11:40;5.80;;;2.40;;
36989;SDS011;22898;52.102;5.776;2024-01-10T11:19:53;9.85;;;3.70;;
36989;SDS011;22898;52.102;5.776;2024-01-10T11:22:43;5.38;;;3.05;;
36989;SDS011;22898;52.102;5.776;2024-01-10T11:25:28;8.65;;;3.03;;
36989;SDS011;22898;52.102;5.776;2024-01-10T11:27:55;7.40;;;2.90;;
36989;SDS011;22898;52.102;5.776;2024-01-10T11:30:36;7.00;;;3.80;;
36989;SDS011;22898;52.102;5.776;2024-01-10T11:33:23;3.80;;;2.53;;
36989;SDS011;22898;52.102;5.776;2024-01-10T11:36:06;6.75;;;2.80;;
36989;SDS011;22898;52.102;5.776;2024-01-10T11:38:44;7.63;;;2.47;;
36989;SDS011;22898;52.102;5.776;2024-01-10T11:41:23;8.40;;;3.47;;
36989;SDS011;22898;52.102;5.776;2024-01-10T11:46:41;6.93;;;3.15;;
36989;SDS011;22898;52.102;5.776;2024-01-10T11:49:08;5.93;;;3.08;;
36989;SDS011;22898;52.102;5.776;2024-01-10T11:51:38;4.40;;;2.63;;
36989;SDS011;22898;52.102;5.776;2024-01-10T11:54:04;7.53;;;3.20;;
36989;SDS011;22898;52.102;5.776;2024-01-10T11:56:39;6.05;;;3.25;;
36989;SDS011;22898;52.102;5.776;2024-01-10T11:59:07;9.32;;;4.20;;
36989;SDS011;22898;52.102;5.776;2024-01-10T12:01:40;9.48;;;3.58;;
36989;SDS011;22898;52.102;5.776;2024-01-10T12:04:07;8.65;;;4.00;;
36989;SDS011;22898;52.102;5.776;2024-01-10T12:06:35;7.88;;;3.67;;
36989;SDS011;22898;52.102;5.776;2024-01-10T12:09:02;7.07;;;2.83;;
36989;SDS011;22898;52.102;5.776;2024-01-10T12:11:34;6.80;;;3.03;;
36989;SDS011;22898;52.102;5.776;2024-01-10T12:14:00;8.82;;;3.38;;
36989;SDS011;22898;52.102;5.776;2024-01-10T12:16:28;7.53;;;3.70;;
36989;SDS011;22898;52.102;5.776;2024-01-10T12:18:54;5.88;;;3.42;;
36989;SDS011;22898;52.102;5.776;2024-01-10T12:21:20;6.18;;;2.92;;
36989;SDS011;22898;52.102;5.776;2024-01-10T12:23:46;10.73;;;4.25;;
36989;SDS011;22898;52.102;5.776;2024-01-10T12:26:13;14.88;;;3.55;;
36989;SDS011;22898;52.102;5.776;2024-01-10T12:28:39;8.60;;;3.25;;
36989;SDS011;22898;52.102;5.776;2024-01-10T12:31:07;7.25;;;3.85;;
36989;SDS011;22898;52.102;5.776;2024-01-10T12:33:33;6.60;;;3.13;;
36989;SDS011;22898;52.102;5.776;2024-01-10T12:36:10;5.45;;;2.83;;
36989;SDS011;22898;52.102;5.776;2024-01-10T12:38:39;8.50;;;2.75;;
36989;SDS011;22898;52.102;5.776;2024-01-10T12:41:05;6.40;;;3.03;;
36989;SDS011;22898;52.102;5.776;2024-01-10T12:43:34;5.55;;;2.55;;
36989;SDS011;22898;52.102;5.776;2024-01-10T12:46:07;6.55;;;3.35;;
36989;SDS011;22898;52.102;5.776;2024-01-10T12:48:40;6.43;;;2.70;;
36989;SDS011;22898;52.102;5.776;2024-01-10T12:51:07;8.93;;;3.72;;
36989;SDS011;22898;52.102;5.776;2024-01-10T12:53:34;3.42;;;2.20;;
36989;SDS011;22898;52.102;5.776;2024-01-10T12:56:01;6.03;;;3.22;;
36989;SDS011;22898;52.102;5.776;2024-01-10T12:58:30;8.30;;;3.28;;
36989;SDS011;22898;52.102;5.776;2024-01-10T13:00:57;8.10;;;3.53;;
36989;SDS011;22898;52.102;5.776;2024-01-10T13:03:23;7.45;;;2.88;;
36989;SDS011;22898;52.102;5.776;2024-01-10T13:05:49;3.90;;;1.98;;
36989;SDS011;22898;52.102;5.776;2024-01-10T13:08:15;8.60;;;3.25;;
36989;SDS011;22898;52.102;5.776;2024-01-10T13:10:42;3.85;;;2.40;;
36989;SDS011;22898;52.102;5.776;2024-01-10T13:13:08;7.30;;;3.05;;
36989;SDS011;22898;52.102;5.776;2024-01-10T13:15:33;8.88;;;3.53;;
36989;SDS011;22898;52.102;5.776;2024-01-10T13:18:00;6.50;;;3.17;;
36989;SDS011;22898;52.102;5.776;2024-01-10T13:20:25;4.43;;;2.40;;
36989;SDS011;22898;52.102;5.776;2024-01-10T13:22:52;7.63;;;3.60;;
36989;SDS011;22898;52.102;5.776;2024-01-10T13:25:18;8.40;;;3.92;;
36989;SDS011;22898;52.102;5.776;2024-01-10T13:27:48;9.55;;;3.90;;
36989;SDS011;22898;52.102;5.776;2024-01-10T13:30:17;4.40;;;2.33;;
36989;SDS011;22898;52.102;5.776;2024-01-10T13:32:43;13.48;;;2.63;;
36989;SDS011;22898;52.102;5.776;2024-01-10T13:35:09;6.30;;;2.92;;
36989;SDS011;22898;52.102;5.776;2024-01-10T13:37:35;5.72;;;3.05;;
36989;SDS011;22898;52.102;5.776;2024-01-10T13:40:01;5.80;;;3.22;;
36989;SDS011;22898;52.102;5.776;2024-01-10T13:42:30;10.15;;;3.80;;
36989;SDS011;22898;52.102;5.776;2024-01-10T13:44:57;8.45;;;2.92;;
36989;SDS011;22898;52.102;5.776;2024-01-10T13:47:23;7.35;;;3.03;;
36989;SDS011;22898;52.102;5.776;2024-01-10T13:49:49;8.40;;;3.75;;
36989;SDS011;22898;52.102;5.776;2024-01-10T13:52:14;5.18;;;3.42;;
36989;SDS011;22898;52.102;5.776;2024-01-10T13:54:40;6.38;;;3.42;;
36989;SDS011;22898;52.102;5.776;2024-01-10T13:57:07;5.70;;;2.67;;
36989;SDS011;22898;52.102;5.776;2024-01-10T13:59:32;6.93;;;3.10;;
36989;SDS011;22898;52.102;5.776;2024-01-10T14:01:58;4.80;;;2.67;;
36989;SDS011;22898;52.102;5.776;2024-01-10T14:04:24;8.02;;;3.25;;
36989;SDS011;22898;52.102;5.776;2024-01-10T14:06:50;4.45;;;2.65;;
36989;SDS011;22898;52.102;5.776;2024-01-10T14:09:15;11.68;;;3.15;;
36989;SDS011;22898;52.102;5.776;2024-01-10T14:11:43;7.28;;;3.40;;
36989;SDS011;22898;52.102;5.776;2024-01-10T14:14:09;5.50;;;2.47;;
36989;SDS011;22898;52.102;5.776;2024-01-10T14:16:35;6.68;;;3.25;;
36989;SDS011;22898;52.102;5.776;2024-01-10T14:19:01;6.38;;;2.45;;
36989;SDS011;22898;52.102;5.776;2024-01-10T14:21:27;7.70;;;3.42;;
36989;SDS011;22898;52.102;5.776;2024-01-10T14:23:53;6.68;;;2.60;;
36989;SDS011;22898;52.102;5.776;2024-01-10T14:26:18;8.02;;;2.78;;
36989;SDS011;22898;52.102;5.776;2024-01-10T14:28:44;7.82;;;3.97;;
36989;SDS011;22898;52.102;5.776;2024-01-10T14:31:10;5.43;;;2.95;;
36989;SDS011;22898;52.102;5.776;2024-01-10T14:33:39;4.53;;;2.63;;
36989;SDS011;22898;52.102;5.776;2024-01-10T14:36:05;9.15;;;4.00;;
36989;SDS011;22898;52.102;5.776;2024-01-10T14:38:30;5.50;;;2.83;;
36989;SDS011;22898;52.102;5.776;2024-01-10T14:40:56;11.30;;;2.83;;
36989;SDS011;22898;52.102;5.776;2024-01-10T14:43:22;9.77;;;3.92;;
36989;SDS011;22898;52.102;5.776;2024-01-10T14:45:47;6.22;;;3.35;;
36989;SDS011;22898;52.102;5.776;2024-01-10T14:48:13;7.78;;;2.83;;
36989;SDS011;22898;52.102;5.776;2024-01-10T14:50:39;6.82;;;2.50;;
36989;SDS011;22898;52.102;5.776;2024-01-10T14:53:05;8.45;;;2.72;;
36989;SDS011;22898;52.102;5.776;2024-01-10T14:55:30;11.48;;;3.42;;